Nekton — PCSX — position and weather

sailwx.info

Track history (hours):
 
Tides and Currents Weather Stations Pressure Air Temp Water Temp Dewpoint Dewpoint Depression Visibility Wind Speed Wind Dir Waves Ship Positions

Nekton

Last reported at 2018-Jun-19 03:43 UTC. Time now 2018-Jun-20 09:23 UTC.
Position N 40°29' W 009°49'.

Length 120 m; draft 5.1 m.

Type: Cargo ship. MMSI: 244860255.

Date/timePositionNaut miles runAvg speedWind from/ knotsBaromVisibWave heightAir tempDewpointWater temp
2018-Jun-19 03:43N 40°29' W 009°49'2 9.6
2018-Jun-19 03:29N 40°27' W 009°49'5 9.9
2018-Jun-19 03:00N 40°22' W 009°50'5 9.7
2018-Jun-19 02:30N 40°17' W 009°50'5 9.8
2018-Jun-19 01:59N 40°12' W 009°50'510.1
2018-Jun-19 01:29N 40°07' W 009°50'5 9.7
2018-Jun-19 01:00N 40°02' W 009°50'5 9.8
2018-Jun-19 00:30N 39°57' W 009°50'5 9.8
2018-Jun-19 00:00N 39°53' W 009°50'5 9.9
2018-Jun-18 23:30N 39°48' W 009°50'5 9.8
2018-Jun-18 23:00N 39°43' W 009°50'5 9.8
2018-Jun-18 22:30N 39°38' W 009°50'5 9.9
2018-Jun-18 22:00N 39°33' W 009°51'510.2
2018-Jun-18 21:30N 39°28' W 009°51'510.1
2018-Jun-18 21:00N 39°23' W 009°51'510.2
2018-Jun-18 20:29N 39°17' W 009°51'510.5
2018-Jun-18 20:00N 39°12' W 009°51'611.1
2018-Jun-18 19:30N 39°07' W 009°51'510.4
2018-Jun-18 19:00N 39°02' W 009°51'5 9.5
2018-Jun-18 18:30N 38°57' W 009°51'510.1
2018-Jun-18 18:00N 38°52' W 009°51'510.4
2018-Jun-18 17:30N 38°47' W 009°51'510.1
2018-Jun-18 17:00N 38°41' W 009°51'5 9.8
2018-Jun-18 16:30N 38°37' W 009°50'5 9.8
2018-Jun-18 16:00N 38°32' W 009°49'510.0
2018-Jun-18 15:30N 38°27' W 009°47'510.0
2018-Jun-18 15:00N 38°22' W 009°46'510.1
2018-Jun-18 14:30N 38°17' W 009°44'5 9.5
2018-Jun-18 14:00N 38°13' W 009°43'5 9.4
2018-Jun-18 13:30N 38°08' W 009°41'5 9.5
2018-Jun-18 13:00N 38°04' W 009°40'5 9.3
2018-Jun-18 12:30N 37°59' W 009°38'5 9.7
2018-Jun-18 12:00N 37°54' W 009°37'5 9.4
2018-Jun-18 11:30N 37°50' W 009°36'5 9.7
2018-Jun-18 11:00N 37°45' W 009°34'5 9.7
2018-Jun-18 10:30N 37°40' W 009°33'5 9.6
2018-Jun-18 10:00N 37°36' W 009°31'5 9.9
2018-Jun-18 09:30N 37°31' W 009°30'510.3
2018-Jun-18 09:00N 37°26' W 009°29'510.5
2018-Jun-18 08:30N 37°21' W 009°27'510.4
2018-Jun-18 08:00N 37°16' W 009°26'510.3
2018-Jun-18 07:30N 37°11' W 009°24'510.7
2018-Jun-18 07:00N 37°05' W 009°23'511.0
2018-Jun-18 06:30N 37°00' W 009°21'510.6
2018-Jun-18 06:00N 36°55' W 009°19'4 8.8
2018-Jun-18 05:30N 36°51' W 009°16'4 8.5
2018-Jun-18 05:00N 36°48' W 009°13'4 8.6
2018-Jun-18 04:30N 36°45' W 009°09'4 8.0
2018-Jun-18 04:00N 36°44' W 009°04'4 7.8
2018-Jun-18 03:30N 36°42' W 008°59'4 8.2
2018-Jun-18 03:00N 36°41' W 008°55'5 9.8
2018-Jun-18 02:30N 36°40' W 008°49'611.4
2018-Jun-18 01:58N 36°38' W 008°42'611.9
2018-Jun-18 01:30N 36°36' W 008°35'1012.1
2018-Jun-18 00:41N 36°32' W 008°23'1112.0
2018-Jun-17 23:45N 36°28' W 008°11'411.8
2018-Jun-17 23:24N 36°27' W 008°06'8910.2
2018-Jun-17 14:39N 35°58' W 006°21'1 1.5
2018-Jun-17 14:16N 35°58' W 006°20'2 1.7
2018-Jun-17 13:11N 35°58' W 006°18'611.1
2018-Jun-17 12:40N 35°58' W 006°11'313.0
2018-Jun-17 12:26N 35°58' W 006°07'2513.2
2018-Jun-17 10:35N 35°58' W 005°37'111.7
2018-Jun-17 10:31N 35°58' W 005°36'611.7
2018-Jun-17 10:01N 35°59' W 005°29'611.4
2018-Jun-17 09:31N 36°01' W 005°22'510.8
2018-Jun-17 09:01N 36°03' W 005°16'611.7
2018-Jun-17 08:30N 36°04' W 005°09'17611.8
2018-Jun-16 17:38N 36°50' W 001°38'213.2
2018-Jun-16 17:29N 36°51' W 001°36'1312.7
2018-Jun-16 16:27N 36°60' W 001°23'1013.0
2018-Jun-16 15:39N 37°07' W 001°13'213.2
2018-Jun-16 15:30N 37°08' W 001°12'712.8
2018-Jun-16 15:00N 37°12' W 001°06'612.7
2018-Jun-16 14:30N 37°16' W 000°60'612.7
2018-Jun-16 14:01N 37°21' W 000°54'713.0
2018-Jun-16 13:30N 37°25' W 000°47'612.9
2018-Jun-16 13:00N 37°29' W 000°41'713.3
2018-Jun-16 12:30N 37°33' W 000°35'713.2
2018-Jun-16 12:00N 37°39' W 000°30'713.1
2018-Jun-16 11:30N 37°45' W 000°26'712.9
2018-Jun-16 11:00N 37°50' W 000°21'612.9
2018-Jun-16 10:30N 37°55' W 000°17'612.7
2018-Jun-16 10:00N 38°00' W 000°12'712.7
2018-Jun-16 09:29N 38°06' W 000°08'612.8
2018-Jun-16 09:00N 38°11' W 000°04'612.8
2018-Jun-16 08:30N 38°16' E 000°01'5 9.8
2018-Jun-16 08:00N 38°21' E 000°04'2 3.8
2018-Jun-16 07:30N 38°22' E 000°06'2 4.0
2018-Jun-16 07:00N 38°24' E 000°07'611.7
2018-Jun-16 06:30N 38°29' E 000°11'612.6
2018-Jun-16 06:00N 38°34' E 000°16'612.4
2018-Jun-16 05:30N 38°39' E 000°20'612.1
2018-Jun-16 05:00N 38°45' E 000°23'612.4
2018-Jun-16 04:30N 38°51' E 000°22'4512.4
2018-Jun-16 00:54N 39°35' E 000°15'  
2018-Jun-11 23:39N 38°52' E 000°26'1 9.4
2018-Jun-11 23:30N 38°51' E 000°26'6 9.3
2018-Jun-11 22:51N 38°45' E 000°27'3 9.0
2018-Jun-11 22:30N 38°41' E 000°28'9 9.6
2018-Jun-11 21:36N 38°34' E 000°21'1 9.2
2018-Jun-11 21:30N 38°33' E 000°21'5 9.3
2018-Jun-11 21:00N 38°30' E 000°18'5 9.5
2018-Jun-11 20:30N 38°26' E 000°14'6 9.6
2018-Jun-11 19:50N 38°20' E 000°10'3 9.7
2018-Jun-11 19:30N 38°18' E 000°07'5 9.6
2018-Jun-11 19:00N 38°14' E 000°04'5 9.3
2018-Jun-11 18:30N 38°10' E 000°01'510.1
2018-Jun-11 18:00N 38°06' W 000°03'510.7
2018-Jun-11 17:30N 38°01' W 000°07'510.7
2018-Jun-11 17:00N 37°57' W 000°10'510.7
2018-Jun-11 16:30N 37°52' W 000°14'510.7
2018-Jun-11 16:00N 37°48' W 000°18'510.5
2018-Jun-11 15:30N 37°44' W 000°22'510.7
2018-Jun-11 15:00N 37°39' W 000°25'510.8
2018-Jun-11 14:30N 37°35' W 000°29'611.1
2018-Jun-11 13:59N 37°30' W 000°34'511.0
2018-Jun-11 13:30N 37°27' W 000°39'611.3
2018-Jun-11 13:00N 37°23' W 000°45'611.0
2018-Jun-11 12:29N 37°19' W 000°50'510.8
2018-Jun-11 12:00N 37°16' W 000°55'610.7
2018-Jun-11 11:28N 37°12' W 001°00'610.7
2018-Jun-11 10:55N 37°08' W 001°06'20610.2
2018-Jun-10 14:44N 36°01' W 005°08'313.8
2018-Jun-10 14:30N 36°00' W 005°12'1414.4
2018-Jun-10 13:30N 35°56' W 005°29'  
Track history (hours):
 
Tides and Currents Weather Stations Pressure Air Temp Water Temp Dewpoint Dewpoint Depression Visibility Wind Speed Wind Dir Waves Ship Positions

Nekton

Last reported at 2018-Jun-19 03:43 UTC. Time now 2018-Jun-20 09:23 UTC.
Position N 40°29' W 009°49'.

Length 120 m; draft 5.1 m.

Type: Cargo ship. MMSI: 244860255.

Date/timePositionNaut miles runAvg speedWind from/ knotsBaromVisibWave heightAir tempDewpointWater temp
2018-Jun-19 03:43N 40°29' W 009°49'2 9.6
2018-Jun-19 03:29N 40°27' W 009°49'5 9.9
2018-Jun-19 03:00N 40°22' W 009°50'5 9.7
2018-Jun-19 02:30N 40°17' W 009°50'5 9.8
2018-Jun-19 01:59N 40°12' W 009°50'510.1
2018-Jun-19 01:29N 40°07' W 009°50'5 9.7
2018-Jun-19 01:00N 40°02' W 009°50'5 9.8
2018-Jun-19 00:30N 39°57' W 009°50'5 9.8
2018-Jun-19 00:00N 39°53' W 009°50'5 9.9
2018-Jun-18 23:30N 39°48' W 009°50'5 9.8
2018-Jun-18 23:00N 39°43' W 009°50'5 9.8
2018-Jun-18 22:30N 39°38' W 009°50'5 9.9
2018-Jun-18 22:00N 39°33' W 009°51'510.2
2018-Jun-18 21:30N 39°28' W 009°51'510.1
2018-Jun-18 21:00N 39°23' W 009°51'510.2
2018-Jun-18 20:29N 39°17' W 009°51'510.5
2018-Jun-18 20:00N 39°12' W 009°51'611.1
2018-Jun-18 19:30N 39°07' W 009°51'510.4
2018-Jun-18 19:00N 39°02' W 009°51'5 9.5
2018-Jun-18 18:30N 38°57' W 009°51'510.1
2018-Jun-18 18:00N 38°52' W 009°51'510.4
2018-Jun-18 17:30N 38°47' W 009°51'510.1
2018-Jun-18 17:00N 38°41' W 009°51'5 9.8
2018-Jun-18 16:30N 38°37' W 009°50'5 9.8
2018-Jun-18 16:00N 38°32' W 009°49'510.0
2018-Jun-18 15:30N 38°27' W 009°47'510.0
2018-Jun-18 15:00N 38°22' W 009°46'510.1
2018-Jun-18 14:30N 38°17' W 009°44'5 9.5
2018-Jun-18 14:00N 38°13' W 009°43'5 9.4
2018-Jun-18 13:30N 38°08' W 009°41'5 9.5
2018-Jun-18 13:00N 38°04' W 009°40'5 9.3
2018-Jun-18 12:30N 37°59' W 009°38'5 9.7
2018-Jun-18 12:00N 37°54' W 009°37'5 9.4
2018-Jun-18 11:30N 37°50' W 009°36'5 9.7
2018-Jun-18 11:00N 37°45' W 009°34'5 9.7
2018-Jun-18 10:30N 37°40' W 009°33'5 9.6
2018-Jun-18 10:00N 37°36' W 009°31'5 9.9
2018-Jun-18 09:30N 37°31' W 009°30'510.3
2018-Jun-18 09:00N 37°26' W 009°29'510.5
2018-Jun-18 08:30N 37°21' W 009°27'510.4
2018-Jun-18 08:00N 37°16' W 009°26'510.3
2018-Jun-18 07:30N 37°11' W 009°24'510.7
2018-Jun-18 07:00N 37°05' W 009°23'511.0
2018-Jun-18 06:30N 37°00' W 009°21'510.6
2018-Jun-18 06:00N 36°55' W 009°19'4 8.8
2018-Jun-18 05:30N 36°51' W 009°16'4 8.5
2018-Jun-18 05:00N 36°48' W 009°13'4 8.6
2018-Jun-18 04:30N 36°45' W 009°09'4 8.0
2018-Jun-18 04:00N 36°44' W 009°04'4 7.8
2018-Jun-18 03:30N 36°42' W 008°59'4 8.2
2018-Jun-18 03:00N 36°41' W 008°55'5 9.8
2018-Jun-18 02:30N 36°40' W 008°49'611.4
2018-Jun-18 01:58N 36°38' W 008°42'611.9
2018-Jun-18 01:30N 36°36' W 008°35'1012.1
2018-Jun-18 00:41N 36°32' W 008°23'1112.0
2018-Jun-17 23:45N 36°28' W 008°11'411.8
2018-Jun-17 23:24N 36°27' W 008°06'8910.2
2018-Jun-17 14:39N 35°58' W 006°21'1 1.5
2018-Jun-17 14:16N 35°58' W 006°20'2 1.7
2018-Jun-17 13:11N 35°58' W 006°18'611.1
2018-Jun-17 12:40N 35°58' W 006°11'313.0
2018-Jun-17 12:26N 35°58' W 006°07'2513.2
2018-Jun-17 10:35N 35°58' W 005°37'111.7
2018-Jun-17 10:31N 35°58' W 005°36'611.7
2018-Jun-17 10:01N 35°59' W 005°29'611.4
2018-Jun-17 09:31N 36°01' W 005°22'510.8
2018-Jun-17 09:01N 36°03' W 005°16'611.7
2018-Jun-17 08:30N 36°04' W 005°09'17611.8
2018-Jun-16 17:38N 36°50' W 001°38'213.2
2018-Jun-16 17:29N 36°51' W 001°36'1312.7
2018-Jun-16 16:27N 36°60' W 001°23'1013.0
2018-Jun-16 15:39N 37°07' W 001°13'213.2
2018-Jun-16 15:30N 37°08' W 001°12'712.8
2018-Jun-16 15:00N 37°12' W 001°06'612.7
2018-Jun-16 14:30N 37°16' W 000°60'612.7
2018-Jun-16 14:01N 37°21' W 000°54'713.0
2018-Jun-16 13:30N 37°25' W 000°47'612.9
2018-Jun-16 13:00N 37°29' W 000°41'713.3
2018-Jun-16 12:30N 37°33' W 000°35'713.2
2018-Jun-16 12:00N 37°39' W 000°30'713.1
2018-Jun-16 11:30N 37°45' W 000°26'712.9
2018-Jun-16 11:00N 37°50' W 000°21'612.9
2018-Jun-16 10:30N 37°55' W 000°17'612.7
2018-Jun-16 10:00N 38°00' W 000°12'712.7
2018-Jun-16 09:29N 38°06' W 000°08'612.8
2018-Jun-16 09:00N 38°11' W 000°04'612.8
2018-Jun-16 08:30N 38°16' E 000°01'5 9.8
2018-Jun-16 08:00N 38°21' E 000°04'2 3.8
2018-Jun-16 07:30N 38°22' E 000°06'2 4.0
2018-Jun-16 07:00N 38°24' E 000°07'611.7
2018-Jun-16 06:30N 38°29' E 000°11'612.6
2018-Jun-16 06:00N 38°34' E 000°16'612.4
2018-Jun-16 05:30N 38°39' E 000°20'612.1
2018-Jun-16 05:00N 38°45' E 000°23'612.4
2018-Jun-16 04:30N 38°51' E 000°22'4512.4
2018-Jun-16 00:54N 39°35' E 000°15'  
2018-Jun-11 23:39N 38°52' E 000°26'1 9.4
2018-Jun-11 23:30N 38°51' E 000°26'6 9.3
2018-Jun-11 22:51N 38°45' E 000°27'3 9.0
2018-Jun-11 22:30N 38°41' E 000°28'9 9.6
2018-Jun-11 21:36N 38°34' E 000°21'1 9.2
2018-Jun-11 21:30N 38°33' E 000°21'5 9.3
2018-Jun-11 21:00N 38°30' E 000°18'5 9.5
2018-Jun-11 20:30N 38°26' E 000°14'6 9.6
2018-Jun-11 19:50N 38°20' E 000°10'3 9.7
2018-Jun-11 19:30N 38°18' E 000°07'5 9.6
2018-Jun-11 19:00N 38°14' E 000°04'5 9.3
2018-Jun-11 18:30N 38°10' E 000°01'510.1
2018-Jun-11 18:00N 38°06' W 000°03'510.7
2018-Jun-11 17:30N 38°01' W 000°07'510.7
2018-Jun-11 17:00N 37°57' W 000°10'510.7
2018-Jun-11 16:30N 37°52' W 000°14'510.7
2018-Jun-11 16:00N 37°48' W 000°18'510.5
2018-Jun-11 15:30N 37°44' W 000°22'510.7
2018-Jun-11 15:00N 37°39' W 000°25'510.8
2018-Jun-11 14:30N 37°35' W 000°29'611.1
2018-Jun-11 13:59N 37°30' W 000°34'511.0
2018-Jun-11 13:30N 37°27' W 000°39'611.3
2018-Jun-11 13:00N 37°23' W 000°45'611.0
2018-Jun-11 12:29N 37°19' W 000°50'510.8
2018-Jun-11 12:00N 37°16' W 000°55'610.7
2018-Jun-11 11:28N 37°12' W 001°00'610.7
2018-Jun-11 10:55N 37°08' W 001°06'20610.2
2018-Jun-10 14:44N 36°01' W 005°08'313.8
2018-Jun-10 14:30N 36°00' W 005°12'1414.4
2018-Jun-10 13:30N 35°56' W 005°29'  

Dump ship's entire track history